createdAt,value
2022-08-03T00:01:58.024Z,99.9
2022-08-03T00:08:09.524Z,99.9
2022-08-03T00:10:10.839Z,99.9
2022-08-03T00:14:20.297Z,99.9
2022-08-03T00:18:26.710Z,99.9
2022-08-03T00:20:29.947Z,99.9
2022-08-03T00:22:33.171Z,99.9
2022-08-03T00:36:59.274Z,99.9
2022-08-03T00:41:08.294Z,99.9
2022-08-03T00:43:11.504Z,99.9
2022-08-03T00:46:21.400Z,99.9
2022-08-03T00:48:33.252Z,99.9
2022-08-03T00:50:24.309Z,99.9
2022-08-03T00:52:27.546Z,99.9
2022-08-03T00:54:33.907Z,99.9
2022-08-03T00:56:37.114Z,99.9
2022-08-03T00:58:40.360Z,99.9
2022-08-03T01:02:46.824Z,99.9
2022-08-03T01:04:50.009Z,99.9
2022-08-03T01:06:53.241Z,99.9
2022-08-03T01:08:59.495Z,99.9
2022-08-03T01:11:02.669Z,99.9
2022-08-03T01:15:09.161Z,99.9
2022-08-03T01:21:18.817Z,99.9
2022-08-03T01:23:28.769Z,99.9
2022-08-03T01:25:28.281Z,99.9
2022-08-03T01:27:31.469Z,99.9
2022-08-03T01:32:59.513Z,99.9
2022-08-03T01:33:41.144Z,99.9
2022-08-03T01:35:44.371Z,99.9
2022-08-03T01:37:50.625Z,99.9
2022-08-03T01:39:53.999Z,99.9
2022-08-03T01:41:57.290Z,99.9
2022-08-03T01:44:29.918Z,99.9
2022-08-03T01:46:24.592Z,99.9
2022-08-03T01:48:27.920Z,99.9
2022-08-03T01:50:34.263Z,99.9
2022-08-03T01:52:37.505Z,99.9
2022-08-03T01:54:40.845Z,99.9
2022-08-03T01:56:44.186Z,99.9
2022-08-03T01:58:47.442Z,99.9
2022-08-03T02:00:50.689Z,99.9
2022-08-03T02:11:10.370Z,99.9
2022-08-03T02:27:43.483Z,99.9
2022-08-03T02:31:46.853Z,99.9
2022-08-03T02:33:53.258Z,99.9
2022-08-03T02:35:56.617Z,99.9
2022-08-03T02:37:59.991Z,99.9
2022-08-03T02:39:03.243Z,99.9
2022-08-03T02:41:06.608Z,99.9
2022-08-03T02:43:09.999Z,99.9
2022-08-03T02:45:13.351Z,99.9
2022-08-03T02:47:19.732Z,99.9
2022-08-03T02:49:40.899Z,99.9
2022-08-03T02:51:26.505Z,99.9
2022-08-03T02:53:29.832Z,99.9
2022-08-03T02:55:33.210Z,99.9
2022-08-03T02:57:36.591Z,99.9
2022-08-03T02:59:39.955Z,99.9
2022-08-03T03:01:46.350Z,99.9
2022-08-03T03:03:49.750Z,99.9
2022-08-03T03:05:57.867Z,99.9
2022-08-03T03:07:56.484Z,99.9
2022-08-03T03:09:59.844Z,99.9
2022-08-03T03:12:03.189Z,99.9
2022-08-03T03:14:06.567Z,99.9
2022-08-03T03:16:12.992Z,99.9
2022-08-03T03:18:21.718Z,99.9
2022-08-03T03:20:29.008Z,99.9
2022-08-03T03:22:23.116Z,99.9
2022-08-03T03:24:26.494Z,99.9
2022-08-03T03:26:29.788Z,99.9
2022-08-03T03:28:33.139Z,99.9
2022-08-03T03:32:43.046Z,99.9
2022-08-03T03:35:49.678Z,99.9
2022-08-03T03:37:53.090Z,99.9
2022-08-03T03:39:56.305Z,99.9
2022-08-03T03:41:59.750Z,99.9
2022-08-03T03:44:06.173Z,99.9
2022-08-03T03:46:09.576Z,99.9
2022-08-03T03:48:12.932Z,99.9
2022-08-03T03:52:19.695Z,99.9
2022-08-03T03:54:25.448Z,99.9
2022-08-03T03:58:32.982Z,99.9
2022-08-03T04:02:39.700Z,99.9
2022-08-03T04:08:49.843Z,99.9
2022-08-03T04:15:03.169Z,99.9
2022-08-03T04:19:09.899Z,99.9
2022-08-03T04:25:20.040Z,99.9
2022-08-03T04:27:26.556Z,99.9
2022-08-03T04:29:29.924Z,99.9
2022-08-03T04:31:33.322Z,99.9
2022-08-03T04:32:36.558Z,99.9
2022-08-03T04:34:39.973Z,99.9
2022-08-03T04:36:43.501Z,99.9
2022-08-03T04:40:53.207Z,99.9
2022-08-03T04:42:56.590Z,99.9
2022-08-03T04:45:01.583Z,99.9
2022-08-03T04:47:03.367Z,99.9
2022-08-03T04:51:11.311Z,99.9
2022-08-03T04:53:14.957Z,99.9
2022-08-03T04:55:21.386Z,99.9
2022-08-03T04:57:24.666Z,99.9
2022-08-03T04:59:28.036Z,99.9
2022-08-03T05:01:31.431Z,99.9
2022-08-03T05:03:34.572Z,99.9
2022-08-03T05:05:50.468Z,99.9
2022-08-03T05:07:41.222Z,99.9
2022-08-03T05:09:50.674Z,99.9
2022-08-03T05:11:51.117Z,99.9
2022-08-03T05:13:54.463Z,99.9
2022-08-03T05:15:57.749Z,99.9
2022-08-03T05:18:03.083Z,99.9
2022-08-03T05:20:05.500Z,99.9
2022-08-03T05:22:13.209Z,99.9
2022-08-03T05:24:14.308Z,99.9
2022-08-03T05:26:17.663Z,99.9
2022-08-03T05:28:21.046Z,99.9
2022-08-03T05:30:44.889Z,99.9
2022-08-03T05:32:48.131Z,99.9
2022-08-03T05:34:51.567Z,99.9
2022-08-03T05:37:00.144Z,99.9
2022-08-03T05:39:02.747Z,99.9
2022-08-03T05:41:23.495Z,99.9
2022-08-03T05:43:07.500Z,99.9
2022-08-03T05:45:10.866Z,99.9
2022-08-03T05:47:14.228Z,99.9
2022-08-03T05:49:17.632Z,99.9
2022-08-03T05:51:23.922Z,99.9
2022-08-03T05:53:27.271Z,99.9
2022-08-03T05:55:30.491Z,99.9
2022-08-03T05:57:33.848Z,99.9
2022-08-03T05:59:38.625Z,99.9
2022-08-03T06:01:40.391Z,99.9
2022-08-03T06:03:43.663Z,99.9
2022-08-03T06:05:59.917Z,99.9
2022-08-03T06:07:53.270Z,99.9
2022-08-03T06:10:37.577Z,99.9
2022-08-03T06:11:59.721Z,99.9
2022-08-03T06:14:03.033Z,99.9
2022-08-03T06:16:06.281Z,99.9
2022-08-03T06:20:15.728Z,99.9
2022-08-03T06:22:19.112Z,99.9
2022-08-03T06:24:22.177Z,99.9
2022-08-03T06:25:25.298Z,99.9
2022-08-03T06:27:37.399Z,99.9
2022-08-03T06:29:31.741Z,99.9
2022-08-03T06:31:34.957Z,99.9
2022-08-03T06:41:54.020Z,99.9
2022-08-03T06:44:03.653Z,99.9
2022-08-03T06:48:06.620Z,99.9
2022-08-03T06:50:12.688Z,99.9
2022-08-03T06:54:16.242Z,99.9
2022-08-03T06:56:19.411Z,99.9
2022-08-03T06:58:22.638Z,99.9
2022-08-03T07:00:25.778Z,99.9
2022-08-03T07:04:35.160Z,99.9
2022-08-03T07:08:41.501Z,99.9
2022-08-03T07:10:44.661Z,99.9
2022-08-03T07:12:55.726Z,99.9
2022-08-03T07:14:51.001Z,99.9
2022-08-03T07:16:57.207Z,99.9
2022-08-03T07:19:00.348Z,99.9
2022-08-03T07:21:03.505Z,99.9
2022-08-03T07:22:06.599Z,99.9
2022-08-03T07:24:09.762Z,99.9
2022-08-03T07:34:28.475Z,99.9
2022-08-03T07:36:31.605Z,99.9
2022-08-03T07:38:34.732Z,99.9
2022-08-03T07:48:53.379Z,99.9
2022-08-03T07:55:02.720Z,99.9
2022-08-03T07:57:05.739Z,99.9
2022-08-03T07:59:11.874Z,99.9
2022-08-03T08:01:15.250Z,99.9
2022-08-03T08:03:18.086Z,99.9
2022-08-03T08:05:21.163Z,99.9
2022-08-03T08:07:24.237Z,99.9
2022-08-03T08:09:27.312Z,99.9
2022-08-03T08:11:30.443Z,99.9
2022-08-03T08:13:36.566Z,99.9
2022-08-03T08:15:42.728Z,99.9
2022-08-03T08:17:42.696Z,99.9
2022-08-03T08:18:45.758Z,99.9
2022-08-03T08:20:48.836Z,99.9
2022-08-03T08:24:54.949Z,99.9
2022-08-03T08:27:01.065Z,99.9
2022-08-03T08:31:07.376Z,99.9
2022-08-03T08:33:15.713Z,99.9
2022-08-03T08:35:13.240Z,99.9
2022-08-03T08:37:16.270Z,99.9
2022-08-03T08:39:19.293Z,99.9
2022-08-03T08:41:25.362Z,99.9
2022-08-03T08:43:28.376Z,99.9
2022-08-03T08:45:31.425Z,99.9
2022-08-03T08:47:51.781Z,99.9
2022-08-03T08:49:37.458Z,99.9
2022-08-03T08:51:59.279Z,99.9
2022-08-03T08:53:43.412Z,99.9
2022-08-03T08:55:58.256Z,99.9
2022-08-03T08:57:52.447Z,99.9
2022-08-03T08:59:57.373Z,99.9
2022-08-03T09:01:58.399Z,99.9
2022-08-03T09:04:01.389Z,99.9
2022-08-03T09:06:04.347Z,99.9
2022-08-03T09:08:07.332Z,99.9
2022-08-03T09:10:13.891Z,99.9
2022-08-03T09:14:35.305Z,99.9
2022-08-03T09:16:48.441Z,99.9
2022-08-03T09:18:51.380Z,99.9
2022-08-03T09:20:54.342Z,99.9
2022-08-03T09:25:23.196Z,99.9
2022-08-03T09:27:06.202Z,99.9
2022-08-03T09:29:14.018Z,99.9
2022-08-03T09:31:12.038Z,99.9
2022-08-03T09:33:14.954Z,98.6
2022-08-03T09:35:27.893Z,98.5
2022-08-03T09:37:23.857Z,97
2022-08-03T09:39:40.975Z,97.3
2022-08-03T09:41:29.667Z,97.4
2022-08-03T09:43:32.567Z,92.4
2022-08-03T09:45:35.470Z,79.3
2022-08-03T09:47:44.940Z,73.1
2022-08-03T09:49:41.294Z,78.8
2022-08-03T09:52:33.235Z,71.1
2022-08-03T09:53:59.735Z,70.6
2022-08-03T09:56:34.479Z,70.5
2022-08-03T09:57:55.808Z,71.2
2022-08-03T10:04:05.160Z,66.9
2022-08-03T10:06:10.319Z,61
2022-08-03T10:08:13.156Z,65.1
2022-08-03T10:10:31.019Z,66.7
2022-08-03T10:11:19.006Z,64.4
2022-08-03T10:13:21.857Z,64.6
2022-08-03T10:16:22.823Z,64.8
2022-08-03T10:17:27.490Z,66.7
2022-08-03T10:19:33.391Z,67.2
2022-08-03T10:21:36.210Z,66.5
2022-08-03T10:23:39.024Z,69.5
2022-08-03T10:25:41.826Z,68.6
2022-08-03T10:27:44.604Z,61
2022-08-03T10:29:47.429Z,60.8
2022-08-03T10:31:57.425Z,61.1
2022-08-03T10:33:56.081Z,61.5
2022-08-03T10:35:58.870Z,61.7
2022-08-03T10:38:01.668Z,60.8
2022-08-03T10:40:04.459Z,56.6
2022-08-03T10:42:10.726Z,56.3
2022-08-03T10:44:09.960Z,55.1
2022-08-03T10:46:12.761Z,54.8
2022-08-03T10:48:20.141Z,54.5
2022-08-03T10:50:22.884Z,54.1
2022-08-03T10:52:31.974Z,53.7
2022-08-03T10:54:28.376Z,53.4
2022-08-03T10:56:48.003Z,52.9
2022-08-03T10:58:33.830Z,52.6
2022-08-03T11:00:36.579Z,51.6
2022-08-03T11:02:42.365Z,51
2022-08-03T11:04:45.014Z,50.5
2022-08-03T11:06:47.716Z,49.9
2022-08-03T11:07:53.112Z,49.4
2022-08-03T11:09:53.251Z,49
2022-08-03T11:11:55.873Z,48.8
2022-08-03T11:13:58.637Z,48.6
2022-08-03T11:16:06.694Z,48
2022-08-03T11:18:06.829Z,47.7
2022-08-03T11:20:09.467Z,46.5
2022-08-03T11:24:14.562Z,46
2022-08-03T11:30:27.251Z,45.4
2022-08-03T11:32:27.866Z,45.5
2022-08-03T11:34:30.373Z,44.6
2022-08-03T11:36:32.875Z,42.7
2022-08-03T11:38:35.374Z,42.8
2022-08-03T11:40:37.870Z,42.6
2022-08-03T11:44:47.541Z,43.8
2022-08-03T11:46:48.405Z,44.2
2022-08-03T11:48:50.862Z,44.1
2022-08-03T11:50:53.336Z,44
2022-08-03T11:52:55.761Z,43.7
2022-08-03T11:54:58.358Z,43.5
2022-08-03T11:57:00.613Z,43.3
2022-08-03T11:59:20.010Z,42.9
2022-08-03T12:01:08.572Z,43
2022-08-03T12:03:11.229Z,43
2022-08-03T12:04:13.757Z,42.9
2022-08-03T12:06:16.136Z,42.9
2022-08-03T12:08:18.514Z,43
2022-08-03T12:10:20.966Z,42.9
2022-08-03T12:12:26.474Z,42.4
2022-08-03T12:14:48.889Z,41.3
2022-08-03T12:16:31.049Z,41.1
2022-08-03T12:18:33.377Z,40.8
2022-08-03T12:20:35.728Z,40.4
2022-08-03T12:22:38.027Z,40.4
2022-08-03T12:24:40.313Z,40.9
2022-08-03T12:26:56.798Z,41
2022-08-03T12:28:49.762Z,41.4
2022-08-03T12:30:50.447Z,41.7
2022-08-03T12:32:52.687Z,41.8
2022-08-03T12:34:54.965Z,41.8
2022-08-03T12:36:57.259Z,41.6
2022-08-03T12:38:59.580Z,41.2
2022-08-03T12:41:05.162Z,40.2
2022-08-03T12:43:07.237Z,39.1
2022-08-03T12:45:09.505Z,38.7
2022-08-03T12:47:11.758Z,38.5
2022-08-03T12:59:32.460Z,37.3
2022-08-03T13:01:55.522Z,37
2022-08-03T13:03:56.860Z,37
2022-08-03T13:05:58.912Z,37
2022-08-03T13:08:04.152Z,36.8
2022-08-03T13:10:08.276Z,36.5
2022-08-03T13:12:08.430Z,36.4
2022-08-03T13:14:10.474Z,36.2
2022-08-03T13:16:17.171Z,36.1
2022-08-03T13:18:17.347Z,36.2
2022-08-03T13:20:16.782Z,36
2022-08-03T13:22:22.013Z,36.4
2022-08-03T13:24:24.164Z,36.4
2022-08-03T13:26:26.245Z,36.1
2022-08-03T13:28:28.417Z,35.9
2022-08-03T13:30:30.742Z,35.8
2022-08-03T13:32:32.469Z,35.5
2022-08-03T13:34:34.513Z,35.4
2022-08-03T13:42:46.168Z,35.7
2022-08-03T13:48:52.587Z,36.5
2022-08-03T13:51:00.404Z,37.2
2022-08-03T13:55:02.350Z,37.6
2022-08-03T13:56:05.026Z,37.8
2022-08-03T13:58:07.652Z,37.8
2022-08-03T14:00:09.512Z,37.7
2022-08-03T14:02:11.803Z,37.6
2022-08-03T14:04:21.778Z,37.3
2022-08-03T14:06:19.297Z,37.4
2022-08-03T14:10:23.768Z,39.3
2022-08-03T14:12:25.980Z,39.5
2022-08-03T14:14:28.221Z,39.6
2022-08-03T14:16:30.424Z,39.7
2022-08-03T14:18:35.723Z,39.7
2022-08-03T14:20:47.838Z,39.5
2022-08-03T14:22:40.129Z,39.4
2022-08-03T14:26:44.541Z,39.7
2022-08-03T14:28:46.768Z,39.9
2022-08-03T14:30:48.990Z,40
2022-08-03T14:32:56.861Z,40.9
2022-08-03T14:34:56.592Z,41.4
2022-08-03T14:36:58.796Z,41.8
2022-08-03T14:39:01.572Z,42.2
2022-08-03T14:41:03.314Z,44
2022-08-03T14:43:05.581Z,45
2022-08-03T14:50:36.347Z,47.6
2022-08-03T14:51:18.094Z,47.8
2022-08-03T14:54:23.713Z,48.3
2022-08-03T14:56:25.690Z,48.2
2022-08-03T14:58:28.151Z,48.2
2022-08-03T15:00:33.721Z,48.5
2022-08-03T15:02:36.316Z,48.7
2022-08-03T15:04:38.715Z,49.3
2022-08-03T15:08:55.392Z,49.5
2022-08-03T15:10:46.458Z,49.6
2022-08-03T15:16:57.154Z,51.1
2022-08-03T15:18:59.770Z,51.3
2022-08-03T15:21:02.405Z,51.5
2022-08-03T15:23:04.979Z,51.5
2022-08-03T15:27:10.283Z,51.8
2022-08-03T15:30:07.153Z,53.2
2022-08-03T15:35:23.941Z,53.6
2022-08-03T15:37:26.879Z,53.1
2022-08-03T15:41:31.980Z,52.9
2022-08-03T15:43:38.378Z,54
2022-08-03T15:45:40.366Z,54.1
2022-08-03T15:47:43.095Z,54.2
2022-08-03T15:48:45.949Z,54.6
2022-08-03T15:50:48.654Z,54.9
2022-08-03T15:52:51.314Z,55.1
2022-08-03T15:54:54.026Z,54.5
2022-08-03T15:59:12.303Z,53.3
2022-08-03T16:01:05.265Z,53.2
2022-08-03T16:03:07.907Z,52.9
2022-08-03T16:05:10.603Z,53.1
2022-08-03T16:07:13.416Z,53.3
2022-08-03T16:09:23.810Z,54.4
2022-08-03T16:11:21.826Z,55.5
2022-08-03T16:14:13.209Z,55.7
2022-08-03T16:17:29.901Z,56.1
2022-08-03T16:19:32.619Z,55.7
2022-08-03T16:21:40.313Z,54.6
2022-08-03T16:31:52.571Z,55.3
2022-08-03T16:33:54.890Z,55.6
2022-08-03T16:35:57.569Z,55.1
2022-08-03T16:38:00.324Z,54.5
2022-08-03T16:40:07.675Z,52.9
2022-08-03T16:42:10.389Z,53.1
2022-08-03T16:48:32.992Z,55
2022-08-03T16:50:35.691Z,55.6
2022-08-03T16:52:41.539Z,57.7
2022-08-03T16:54:44.257Z,57.9
2022-08-03T16:56:47.169Z,58.1
2022-08-03T16:58:50.353Z,58.4
2022-08-03T17:00:52.600Z,58.3
2022-08-03T17:02:55.233Z,58.5
2022-08-03T17:04:57.988Z,59.5
2022-08-03T17:07:03.825Z,61.4
2022-08-03T17:09:08.459Z,61.4
2022-08-03T17:11:09.306Z,61.1
2022-08-03T17:13:12.023Z,60.8
2022-08-03T17:15:14.846Z,60
2022-08-03T17:17:17.514Z,60
2022-08-03T17:19:20.260Z,61.8
2022-08-03T17:21:26.123Z,62.1
2022-08-03T17:23:34.764Z,64.5
2022-08-03T17:25:51.477Z,65.1
2022-08-03T17:28:48.900Z,65.2
2022-08-03T17:29:37.107Z,66
2022-08-03T17:31:42.240Z,67.6
2022-08-03T17:33:42.647Z,68.1
2022-08-03T17:35:48.501Z,64.4
2022-08-03T17:40:57.004Z,56.8
2022-08-03T17:42:59.759Z,57.2
2022-08-03T17:45:03.825Z,58
2022-08-03T17:47:06.538Z,58.9
2022-08-03T17:51:15.416Z,62.2
2022-08-03T17:53:23.889Z,62.4
2022-08-03T17:55:55.169Z,56.4
2022-08-03T17:57:26.481Z,56.7
2022-08-03T18:10:05.906Z,48.1
2022-08-03T18:13:57.686Z,46.3
2022-08-03T18:15:49.691Z,46.2
2022-08-03T18:18:02.072Z,46.1
2022-08-03T18:20:02.502Z,47
2022-08-03T18:22:03.341Z,49.1
2022-08-03T18:24:03.504Z,49.4
2022-08-03T18:26:06.169Z,50.2
2022-08-03T18:28:08.845Z,51.3
2022-08-03T18:30:11.965Z,52.5
2022-08-03T18:32:17.290Z,54.6
2022-08-03T18:34:33.599Z,55.3
2022-08-03T18:36:30.390Z,69.7
2022-08-03T18:39:28.399Z,82.3
2022-08-03T18:41:32.840Z,91.2
2022-08-03T18:43:47.550Z,91.5
2022-08-03T18:45:56.212Z,93
2022-08-03T18:47:50.674Z,94
2022-08-03T18:51:47.518Z,97.3
2022-08-03T18:56:01.650Z,98.8
2022-08-03T19:00:01.565Z,99.6
2022-08-03T19:02:04.439Z,99.9
2022-08-03T19:04:07.165Z,99.9
2022-08-03T19:08:13.578Z,99.9
2022-08-03T19:10:15.825Z,99.9
2022-08-03T19:18:29.947Z,99.9
2022-08-03T19:20:32.778Z,99.9
2022-08-03T19:24:38.492Z,99.9
2022-08-03T19:26:41.462Z,99.9
2022-08-03T19:28:47.310Z,99.9
2022-08-03T19:30:53.330Z,99.9
2022-08-03T19:32:53.162Z,99.9
2022-08-03T19:33:57.344Z,99.9
2022-08-03T19:38:01.950Z,99.9
2022-08-03T19:40:04.766Z,99.9
2022-08-03T19:42:12.142Z,99.9
2022-08-03T19:44:19.821Z,99.9
2022-08-03T19:46:16.589Z,99.9
2022-08-03T19:48:19.524Z,99.9
2022-08-03T19:50:22.428Z,99.9
2022-08-03T19:52:31.318Z,99.9
2022-08-03T19:54:29.816Z,99.9
2022-08-03T19:56:34.286Z,99.9
2022-08-03T20:02:43.137Z,99.9
2022-08-03T20:08:51.869Z,99.9
2022-08-03T20:10:57.873Z,99.9
2022-08-03T20:21:15.318Z,99.9
2022-08-03T20:25:21.537Z,99.9
2022-08-03T20:31:50.984Z,99.9
2022-08-03T20:33:53.945Z,99.9
2022-08-03T20:35:56.902Z,99.9
2022-08-03T20:38:02.986Z,99.9
2022-08-03T20:40:05.909Z,99.9
2022-08-03T20:42:08.855Z,99.9
2022-08-03T20:44:11.824Z,99.9
2022-08-03T20:46:32.105Z,99.9
2022-08-03T20:48:17.835Z,99.9
2022-08-03T20:50:21.934Z,99.9
2022-08-03T20:54:31.562Z,99.9
2022-08-03T20:56:33.713Z,99.9
2022-08-03T20:58:35.818Z,99.9
2022-08-03T21:00:38.839Z,99.9
2022-08-03T21:02:41.814Z,99.9
2022-08-03T21:04:44.847Z,99.9
2022-08-03T21:06:53.063Z,99.9
2022-08-03T21:17:13.999Z,99.9
2022-08-03T21:21:15.188Z,99.9
2022-08-03T21:23:40.040Z,99.9
2022-08-03T21:25:21.238Z,99.9
2022-08-03T21:36:43.564Z,99.9
2022-08-03T21:38:47.560Z,99.9
2022-08-03T21:40:48.766Z,99.9
2022-08-03T21:42:51.798Z,99.9
2022-08-03T21:44:54.891Z,99.9
2022-08-03T21:46:57.952Z,99.9
2022-08-03T21:50:07.377Z,99.9
2022-08-03T21:51:07.178Z,99.9
2022-08-03T21:53:10.282Z,99.9
2022-08-03T21:55:18.526Z,99.9
2022-08-03T21:59:19.516Z,99.9
2022-08-03T22:01:22.708Z,99.9
2022-08-03T22:03:28.866Z,99.9
2022-08-03T22:05:43.483Z,99.9
2022-08-03T22:07:35.000Z,99.9
2022-08-03T22:09:38.126Z,99.9
2022-08-03T22:13:46.743Z,99.9
2022-08-03T22:17:57.171Z,99.9
2022-08-03T22:21:59.887Z,99.9
2022-08-03T22:23:02.987Z,99.9
2022-08-03T22:25:06.133Z,99.9
2022-08-03T22:27:09.281Z,99.9
2022-08-03T22:29:12.434Z,99.9
2022-08-03T22:31:30.622Z,99.9
2022-08-03T22:33:23.458Z,99.9
2022-08-03T22:35:26.388Z,99.9
2022-08-03T22:37:30.944Z,99.9
2022-08-03T22:41:35.892Z,99.9
2022-08-03T22:43:39.040Z,99.9
2022-08-03T22:46:10.337Z,99.9
2022-08-03T22:49:51.491Z,99.9
2022-08-03T22:51:54.672Z,99.9
2022-08-03T22:53:57.858Z,99.9
2022-08-03T23:00:10.401Z,99.9
2022-08-03T23:02:16.028Z,99.9
2022-08-03T23:04:16.816Z,99.9
2022-08-03T23:06:19.919Z,99.9
2022-08-03T23:08:23.105Z,99.9
2022-08-03T23:10:26.294Z,99.9
2022-08-03T23:12:29.488Z,99.9
2022-08-03T23:14:35.804Z,99.9
2022-08-03T23:16:38.978Z,99.9
2022-08-03T23:18:42.183Z,99.9
2022-08-03T23:19:45.289Z,99.9
2022-08-03T23:22:00.805Z,99.9
2022-08-03T23:23:51.680Z,99.9
2022-08-03T23:25:54.873Z,99.9
2022-08-03T23:28:05.173Z,99.9
2022-08-03T23:30:04.343Z,99.9
2022-08-03T23:32:07.500Z,99.9
2022-08-03T23:34:16.704Z,99.9
2022-08-03T23:36:30.369Z,99.9
2022-08-03T23:38:22.754Z,99.9
2022-08-03T23:44:29.840Z,99.9
2022-08-03T23:46:33.232Z,99.9
2022-08-03T23:48:36.219Z,99.9
2022-08-03T23:50:39.406Z,99.9
2022-08-03T23:52:42.653Z,99.9
2022-08-03T23:54:45.863Z,99.9
2022-08-03T23:56:52.059Z,99.9
2022-08-03T23:58:55.283Z,99.9
